Time;durP1;ratioP1;P1;durP2;ratioP2;P2;SDS_P1;SDS_P2;PMS_P1;PMS_P2;Temp;Humidity;BMP_temperature;BMP_pressure;BME280_temperature;BME280_humidity;BME280_pressure;Samples;Min_cycle;Max_cycle;Signal;HPM_P1;HPM_P2
2022/10/21 00:01:21;;;;;;;0.88;0.80;;;18.80;85.50;;;;;;5111350;28;20029;-73
2022/10/21 00:03:47;;;;;;;3.28;0.90;;;18.70;85.50;;;;;;5112720;28;20039;-73
2022/10/21 00:06:12;;;;;;;2.45;0.90;;;18.70;85.60;;;;;;5112424;28;20027;-73
2022/10/21 00:08:38;;;;;;;2.97;0.80;;;18.70;85.60;;;;;;5094470;28;20030;-73
2022/10/21 00:11:05;;;;;;;1.70;1.35;;;18.70;85.70;;;;;;5111336;28;20024;-73
2022/10/21 00:13:31;;;;;;;4.20;0.85;;;18.70;85.70;;;;;;5101337;28;20414;-73
2022/10/21 00:16:11;;;;;;;0.70;0.60;;;18.80;85.80;;;;;;5090998;28;20027;-73
2022/10/21 00:18:37;;;;;;;3.47;1.35;;;18.70;85.70;;;;;;5092110;28;20478;-73
2022/10/21 00:21:07;;;;;;;2.33;1.00;;;18.80;85.80;;;;;;5102928;28;20485;-72
2022/10/21 00:23:32;;;;;;;3.90;1.00;;;18.80;86.00;;;;;;5111207;28;20031;-72
2022/10/21 00:25:58;;;;;;;0.85;0.80;;;18.70;85.80;;;;;;5112292;28;20366;-72
2022/10/21 00:28:24;;;;;;;3.00;1.10;;;18.80;85.90;;;;;;5111080;28;20027;-73
2022/10/21 00:30:50;;;;;;;2.65;0.90;;;18.80;85.80;;;;;;5094471;28;20028;-73
2022/10/21 00:33:15;;;;;;;2.15;0.90;;;18.80;85.80;;;;;;5112067;28;20034;-73
2022/10/21 00:35:41;;;;;;;3.13;1.10;;;18.80;85.70;;;;;;5112186;28;20023;-73
2022/10/21 00:38:06;;;;;;;3.03;0.80;;;18.80;85.70;;;;;;5112139;28;20099;-72
2022/10/21 00:40:32;;;;;;;2.53;0.90;;;18.80;85.70;;;;;;5111636;28;20406;-72
2022/10/21 00:42:58;;;;;;;1.65;0.82;;;18.80;85.60;;;;;;5111520;28;20397;-73
2022/10/21 00:45:25;;;;;;;4.28;0.98;;;18.80;85.50;;;;;;5094082;28;20072;-73
2022/10/21 00:48:00;;;;;;;1.95;0.80;;;18.80;85.50;;;;;;5110959;28;20035;-73
2022/10/21 00:50:31;;;;;;;2.13;0.80;;;18.80;85.60;;;;;;5094693;28;20026;-73
2022/10/21 00:52:56;;;;;;;2.33;0.90;;;18.90;85.60;;;;;;5110774;28;20582;-73
2022/10/21 00:55:22;;;;;;;2.00;0.60;;;18.80;85.50;;;;;;5080092;28;497700;-73
2022/10/21 00:57:48;;;;;;;4.95;1.17;;;18.80;85.40;;;;;;5111344;28;20024;-73
2022/10/21 01:00:14;;;;;;;3.53;0.82;;;18.90;85.50;;;;;;5094756;28;20023;-73
2022/10/21 01:02:40;;;;;;;3.03;0.80;;;18.90;85.50;;;;;;5112540;28;20023;-73
2022/10/21 01:05:05;;;;;;;6.97;1.20;;;18.80;85.60;;;;;;5093707;28;20513;-73
2022/10/21 01:07:31;;;;;;;3.10;0.82;;;18.80;85.60;;;;;;5077847;28;20107;-73
2022/10/21 01:09:57;;;;;;;1.83;0.82;;;18.90;85.70;;;;;;5072686;28;20021;-73
2022/10/21 01:12:37;;;;;;;5.90;0.90;;;18.90;85.70;;;;;;5072568;28;20033;-72
2022/10/21 01:15:29;;;;;;;2.08;0.93;;;18.90;85.70;;;;;;5091384;28;20024;-73
2022/10/21 01:18:09;;;;;;;4.32;0.80;;;18.90;85.70;;;;;;5089949;28;20062;-73
2022/10/21 01:20:56;;;;;;;3.78;0.57;;;18.90;85.70;;;;;;5100030;28;20024;-73
2022/10/21 01:23:48;;;;;;;4.25;1.02;;;18.80;85.70;;;;;;5103463;28;20077;-72
2022/10/21 01:26:32;;;;;;;1.73;0.77;;;18.90;85.80;;;;;;5082798;28;20111;-73
2022/10/21 01:29:31;;;;;;;2.22;0.77;;;18.90;85.80;;;;;;5092285;28;20046;-73
2022/10/21 01:32:03;;;;;;;5.72;0.98;;;18.90;85.80;;;;;;5090751;28;20034;-72
2022/10/21 01:35:02;;;;;;;2.40;0.70;;;18.90;85.80;;;;;;5090888;28;20085;-73
2022/10/21 01:37:45;;;;;;;5.40;0.80;;;18.90;85.80;;;;;;5090837;28;20044;-73
2022/10/21 01:40:16;;;;;;;;;;;18.90;85.90;;;;;;5091315;28;20027;-73
2022/10/21 01:42:45;;;;;;;4.22;1.00;;;18.90;85.70;;;;;;5090769;28;20014;-73
2022/10/21 01:45:22;;;;;;;1.65;0.70;;;18.90;85.80;;;;;;5090834;28;20028;-72
2022/10/21 01:48:02;;;;;;;5.55;1.42;;;18.90;85.80;;;;;;5090555;28;20048;-73
2022/10/21 01:50:29;;;;;;;3.70;0.90;;;18.90;85.80;;;;;;5090845;28;20016;-73
2022/10/21 01:53:00;;;;;;;2.63;0.73;;;18.90;85.80;;;;;;5075134;28;20076;-73
2022/10/21 01:55:28;;;;;;;1.40;0.82;;;18.90;85.80;;;;;;5077647;28;20033;-73
2022/10/21 01:58:18;;;;;;;0.98;0.80;;;18.90;85.70;;;;;;5077572;28;20051;-73
2022/10/21 02:00:44;;;;;;;2.45;0.90;;;18.90;85.70;;;;;;5086723;28;20035;-73
2022/10/21 02:03:10;;;;;;;4.75;1.10;;;18.90;85.70;;;;;;5077212;28;20085;-73
2022/10/21 02:05:36;;;;;;;4.35;1.10;;;18.90;85.70;;;;;;5060558;28;20031;-73
2022/10/21 02:08:02;;;;;;;5.22;0.90;;;18.90;85.80;;;;;;5094030;28;20444;-73
2022/10/21 02:10:33;;;;;;;3.38;1.00;;;18.90;85.70;;;;;;5077141;28;20390;-73
2022/10/21 02:12:59;;;;;;;1.25;0.68;;;18.90;85.70;;;;;;5077349;28;20073;-73
2022/10/21 02:15:25;;;;;;;4.30;0.90;;;18.90;85.80;;;;;;5077110;28;20031;-73
2022/10/21 02:17:54;;;;;;;2.80;0.90;;;18.90;85.70;;;;;;5077078;28;20021;-73
2022/10/21 02:20:19;;;;;;;1.92;0.88;;;18.90;85.70;;;;;;5083623;28;20050;-72
2022/10/21 02:22:45;;;;;;;2.67;0.82;;;18.90;85.70;;;;;;5114216;28;20436;-73
2022/10/21 02:25:14;;;;;;;4.00;0.80;;;18.90;85.70;;;;;;5114256;28;20489;-73
2022/10/21 02:27:39;;;;;;;5.35;1.08;;;18.90;85.70;;;;;;5114036;28;20028;-72
2022/10/21 02:30:05;;;;;;;2.28;1.00;;;18.90;85.70;;;;;;5097108;28;20034;-73
2022/10/21 02:32:56;;;;;;;1.42;0.73;;;18.90;85.70;;;;;;5113893;28;20024;-73
2022/10/21 02:36:09;;;;;;;5.43;1.38;;;18.90;85.70;;;;;;5113871;28;20108;-73
2022/10/21 02:38:42;;;;;;;;;;;18.80;86.60;;;;;;5052639;28;20391;-73
2022/10/21 02:41:11;;;;;;;2.17;0.90;;;18.90;85.60;;;;;;5035781;28;20438;-73
2022/10/21 02:43:46;;;;;;;9.02;1.00;;;18.80;85.60;;;;;;5035599;28;20091;-73
2022/10/21 02:46:12;;;;;;;5.72;1.02;;;18.90;85.70;;;;;;5035621;28;20025;-73
2022/10/21 02:48:39;;;;;;;3.78;0.90;;;18.90;85.70;;;;;;5035589;28;20063;-73
2022/10/21 02:51:06;;;;;;;5.72;1.08;;;18.90;85.70;;;;;;5035484;28;20711;-73
2022/10/21 02:53:32;;;;;;;5.28;0.80;;;18.90;85.70;;;;;;5035236;28;20102;-72
2022/10/21 02:55:57;;;;;;;4.75;0.93;;;18.90;85.70;;;;;;5035359;28;20111;-73
2022/10/21 02:58:23;;;;;;;3.28;1.00;;;18.90;85.70;;;;;;5035238;28;20499;-73
2022/10/21 03:00:49;;;;;;;3.13;1.55;;;18.90;85.80;;;;;;5035141;28;20057;-73
2022/10/21 03:03:14;;;;;;;3.22;0.77;;;18.90;85.80;;;;;;5035312;28;20037;-73
2022/10/21 03:05:40;;;;;;;3.33;1.38;;;18.90;85.80;;;;;;5050926;28;20025;-72
2022/10/21 03:08:05;;;;;;;8.63;1.55;;;18.80;85.70;;;;;;5051830;28;20032;-73
2022/10/21 03:10:31;;;;;;;3.90;1.10;;;18.90;85.80;;;;;;5113165;28;20027;-73
2022/10/21 03:12:57;;;;;;;4.22;0.95;;;18.90;85.80;;;;;;5108242;28;20063;-73
2022/10/21 03:15:22;;;;;;;4.10;1.02;;;18.90;85.80;;;;;;5092652;28;20039;-73
2022/10/21 03:17:48;;;;;;;5.38;0.98;;;18.90;85.80;;;;;;5093922;28;20027;-72
2022/10/21 03:20:14;;;;;;;4.15;1.17;;;18.90;85.80;;;;;;5099409;28;20031;-72
2022/10/21 03:22:39;;;;;;;3.63;1.35;;;18.90;85.90;;;;;;5112944;28;20030;-72
2022/10/21 03:25:05;;;;;;;5.88;1.30;;;18.90;85.80;;;;;;5112896;28;20036;-73
2022/10/21 03:27:31;;;;;;;2.67;0.77;;;18.90;85.80;;;;;;5114294;28;20050;-73
2022/10/21 03:29:57;;;;;;;2.42;0.77;;;18.90;85.90;;;;;;5095764;28;20055;-73
2022/10/21 03:32:22;;;;;;;2.92;1.10;;;18.90;85.90;;;;;;5114102;28;20061;-73
2022/10/21 03:34:48;;;;;;;2.08;0.73;;;18.90;86.00;;;;;;5113825;28;20028;-73
2022/10/21 03:37:14;;;;;;;6.47;1.08;;;18.90;86.00;;;;;;5114145;28;20098;-72
2022/10/21 03:39:39;;;;;;;5.00;1.08;;;18.90;86.00;;;;;;5113675;28;20482;-73
2022/10/21 03:42:05;;;;;;;6.20;1.33;;;18.90;86.00;;;;;;5112751;28;20473;-73
2022/10/21 03:44:30;;;;;;;6.50;0.90;;;18.90;86.00;;;;;;5113560;28;20027;-73
2022/10/21 03:46:56;;;;;;;8.10;1.35;;;18.90;86.00;;;;;;5113852;28;20054;-73
2022/10/21 03:49:22;;;;;;;6.53;1.02;;;18.90;86.00;;;;;;5113483;28;20041;-73
2022/10/21 03:51:48;;;;;;;6.50;1.15;;;18.90;86.10;;;;;;5113603;28;20397;-73
2022/10/21 03:54:13;;;;;;;3.10;1.02;;;18.90;86.10;;;;;;5113602;28;20051;-73
2022/10/21 03:56:39;;;;;;;4.55;1.00;;;18.90;86.20;;;;;;5112261;28;20023;-72
2022/10/21 03:59:05;;;;;;;5.72;1.80;;;18.90;86.20;;;;;;5113376;28;20501;-73
2022/10/21 04:01:30;;;;;;;5.40;1.33;;;18.90;86.30;;;;;;5113440;28;20024;-73
2022/10/21 04:03:56;;;;;;;3.47;1.20;;;18.90;86.20;;;;;;5113422;28;20051;-73
2022/10/21 04:06:21;;;;;;;3.67;0.98;;;18.90;86.20;;;;;;5113621;28;20092;-72
2022/10/21 04:08:47;;;;;;;4.07;1.15;;;18.90;86.20;;;;;;5112248;28;20102;-73
2022/10/21 04:11:13;;;;;;;4.60;1.42;;;18.90;86.20;;;;;;5113264;28;20019;-73
2022/10/21 04:13:38;;;;;;;5.45;1.30;;;18.90;86.20;;;;;;5102158;28;20036;-73
2022/10/21 04:16:05;;;;;;;2.20;0.63;;;18.90;86.20;;;;;;5092737;28;20066;-73
2022/10/21 04:18:31;;;;;;;5.18;1.00;;;18.90;86.20;;;;;;5091706;28;20107;-73
2022/10/21 04:20:57;;;;;;;7.32;1.38;;;18.90;86.20;;;;;;5104541;28;20104;-73
2022/10/21 04:23:23;;;;;;;6.43;1.20;;;18.90;86.20;;;;;;5111936;28;20378;-73
2022/10/21 04:25:48;;;;;;;4.95;1.20;;;18.90;86.20;;;;;;5113131;28;20063;-73
2022/10/21 04:28:14;;;;;;;7.65;1.50;;;18.90;86.20;;;;;;5112877;28;20114;-73
2022/10/21 04:30:40;;;;;;;4.72;1.20;;;18.90;86.20;;;;;;5111899;28;20023;-73
2022/10/21 04:33:05;;;;;;;6.35;1.13;;;18.90;86.20;;;;;;5112948;28;20164;-73
2022/10/21 04:35:31;;;;;;;5.80;1.65;;;18.90;86.20;;;;;;5111738;28;20068;-73
2022/10/21 04:37:56;;;;;;;5.90;1.20;;;18.90;86.20;;;;;;5094857;28;20028;-72
2022/10/21 04:40:22;;;;;;;5.50;1.60;;;18.90;86.20;;;;;;5112858;28;20024;-73
2022/10/21 04:42:48;;;;;;;3.40;1.08;;;18.90;86.30;;;;;;5112990;28;20032;-73
2022/10/21 04:45:15;;;;;;;5.32;1.40;;;18.90;86.20;;;;;;5111625;28;20035;-73
2022/10/21 04:47:40;;;;;;;4.70;1.00;;;18.90;86.20;;;;;;5095033;28;20036;-73
2022/10/21 04:50:06;;;;;;;3.53;1.33;;;18.90;86.20;;;;;;5111828;28;20516;-73
2022/10/21 04:52:32;;;;;;;3.58;1.08;;;18.90;86.20;;;;;;5112955;28;20481;-73
2022/10/21 04:54:58;;;;;;;3.67;1.23;;;18.90;86.20;;;;;;5111222;28;20040;-73
2022/10/21 04:57:23;;;;;;;5.25;1.52;;;18.90;86.20;;;;;;5112855;28;20026;-73
2022/10/21 04:59:49;;;;;;;7.30;1.27;;;18.90;86.20;;;;;;5112634;28;20020;-73
2022/10/21 05:02:14;;;;;;;5.28;1.17;;;18.90;86.20;;;;;;5112918;28;20031;-72
2022/10/21 05:04:40;;;;;;;6.63;1.52;;;18.90;86.20;;;;;;5111177;28;20035;-73
2022/10/21 05:07:06;;;;;;;6.93;1.40;;;18.90;86.20;;;;;;5111597;28;20028;-72
2022/10/21 05:09:31;;;;;;;5.57;1.10;;;18.90;86.20;;;;;;5112577;28;20031;-72
2022/10/21 05:11:57;;;;;;;6.75;1.17;;;18.90;86.30;;;;;;5112431;28;20409;-73
2022/10/21 05:14:23;;;;;;;5.05;1.60;;;18.90;86.30;;;;;;5094515;28;20506;-73
2022/10/21 05:16:48;;;;;;;5.57;0.93;;;18.90;86.30;;;;;;5086297;28;20062;-72
2022/10/21 05:19:14;;;;;;;7.30;1.10;;;18.90;86.30;;;;;;5090372;28;20028;-73
2022/10/21 05:21:39;;;;;;;3.60;1.10;;;18.90;86.30;;;;;;5108560;28;20026;-73
2022/10/21 05:24:05;;;;;;;7.20;1.65;;;18.90;86.30;;;;;;5112337;28;20096;-73
2022/10/21 05:26:31;;;;;;;4.45;1.20;;;18.90;86.30;;;;;;5112546;28;20081;-72
2022/10/21 05:28:57;;;;;;;6.70;1.20;;;18.90;86.30;;;;;;5115211;28;20019;-72
2022/10/21 05:31:23;;;;;;;5.75;1.45;;;18.90;86.30;;;;;;5116346;28;20039;-72
2022/10/21 05:33:49;;;;;;;5.03;1.38;;;18.90;86.30;;;;;;5108466;28;20101;-73
2022/10/21 05:36:14;;;;;;;3.30;1.17;;;18.90;86.20;;;;;;5095945;28;20055;-72
2022/10/21 05:38:40;;;;;;;5.00;1.70;;;18.90;86.30;;;;;;5094185;28;20409;-73
2022/10/21 05:41:06;;;;;;;6.57;1.30;;;18.90;86.30;;;;;;5095693;28;20024;-72
2022/10/21 05:43:31;;;;;;;7.28;1.40;;;18.90;86.30;;;;;;5095970;28;20024;-72
2022/10/21 05:45:57;;;;;;;5.22;1.55;;;18.90;86.20;;;;;;5095764;28;20034;-73
2022/10/21 05:48:23;;;;;;;8.90;1.48;;;18.90;86.30;;;;;;5095889;28;20575;-73
2022/10/21 05:50:51;;;;;;;4.95;1.10;;;18.90;86.50;;;;;;5094491;28;20474;-72
2022/10/21 05:53:16;;;;;;;3.53;1.40;;;18.90;86.30;;;;;;5095372;28;20016;-73
2022/10/21 05:55:42;;;;;;;5.50;1.35;;;18.90;86.40;;;;;;5094205;28;20399;-72
2022/10/21 05:58:08;;;;;;;6.57;1.10;;;18.90;86.40;;;;;;5095635;28;20095;-72
2022/10/21 06:00:33;;;;;;;6.15;1.42;;;18.90;86.50;;;;;;5095437;28;20111;-73
2022/10/21 06:02:59;;;;;;;8.88;1.40;;;18.90;86.50;;;;;;5095477;28;20447;-73
2022/10/21 06:05:25;;;;;;;6.65;1.30;;;18.90;86.50;;;;;;5077445;28;20573;-72
2022/10/21 06:07:50;;;;;;;12.43;2.53;;;18.90;86.10;;;;;;5095222;28;20150;-72
2022/10/21 06:10:16;;;;;;;9.93;1.83;;;18.90;85.60;;;;;;5093597;28;20032;-72
2022/10/21 06:12:42;;;;;;;5.28;1.80;;;18.90;84.30;;;;;;5093823;28;20032;-72
2022/10/21 06:15:08;;;;;;;17.00;2.17;;;18.90;83.90;;;;;;5093919;28;20024;-72
2022/10/21 06:17:34;;;;;;;15.93;2.05;;;18.80;83.10;;;;;;5093725;28;20028;-72
2022/10/21 06:20:00;;;;;;;12.70;2.55;;;18.80;82.80;;;;;;5098396;28;20034;-72
2022/10/21 06:22:27;;;;;;;12.45;1.90;;;18.80;82.80;;;;;;5115158;28;20020;-72
2022/10/21 06:24:52;;;;;;;19.83;2.00;;;18.80;82.90;;;;;;5115175;28;20024;-72
2022/10/21 06:27:19;;;;;;;12.68;2.40;;;18.80;82.90;;;;;;5115271;28;20065;-72
2022/10/21 06:29:44;;;;;;;16.52;2.47;;;18.80;82.90;;;;;;5114790;28;20077;-72
2022/10/21 06:32:10;;;;;;;9.43;2.08;;;18.70;82.80;;;;;;5110282;28;20501;-73
2022/10/21 06:34:36;;;;;;;15.02;1.95;;;18.70;82.80;;;;;;5071878;28;20028;-73
2022/10/21 06:37:02;;;;;;;13.50;2.15;;;18.70;82.90;;;;;;5072667;28;20481;-73
2022/10/21 06:39:28;;;;;;;19.77;3.40;;;18.70;82.80;;;;;;5073025;28;20483;-73
2022/10/21 06:41:53;;;;;;;14.90;2.35;;;18.70;82.80;;;;;;5089846;28;20475;-73
2022/10/21 06:44:19;;;;;;;10.10;1.90;;;18.70;82.80;;;;;;5092976;28;20055;-72
2022/10/21 06:46:45;;;;;;;12.65;2.17;;;18.70;82.80;;;;;;5091619;28;20012;-71
2022/10/21 06:49:10;;;;;;;22.00;3.65;;;18.70;83.20;;;;;;5091405;28;20030;-72
2022/10/21 06:51:36;;;;;;;24.27;3.60;;;18.70;83.20;;;;;;5094071;28;20064;-72
2022/10/21 06:54:01;;;;;;;27.90;4.30;;;18.70;83.10;;;;;;5092807;28;20052;-72
2022/10/21 06:56:27;;;;;;;34.38;5.45;;;18.70;83.10;;;;;;5093063;28;20327;-72
2022/10/21 06:58:55;;;;;;;24.42;4.13;;;18.70;83.00;;;;;;5092091;28;20035;-72
2022/10/21 07:01:22;;;;;;;22.00;4.15;;;18.70;83.10;;;;;;5093198;28;20106;-72
2022/10/21 07:03:48;;;;;;;38.30;5.07;;;18.70;83.20;;;;;;5092032;28;20027;-72
2022/10/21 07:06:14;;;;;;;23.77;4.28;;;18.70;83.30;;;;;;5097261;28;20020;-72
2022/10/21 07:08:40;;;;;;;35.88;4.75;;;18.70;83.20;;;;;;5090480;28;20080;-72
2022/10/21 07:11:06;;;;;;;29.02;4.32;;;18.70;83.40;;;;;;5094934;28;20031;-72
2022/10/21 07:13:32;;;;;;;35.47;4.47;;;18.70;83.40;;;;;;5096226;28;20115;-72
2022/10/21 07:16:17;;;;;;;25.48;3.83;;;18.70;83.40;;;;;;5112916;28;20015;-72
2022/10/21 07:18:43;;;;;;;20.40;3.55;;;18.70;83.40;;;;;;5113255;28;20019;-72
2022/10/21 07:21:12;;;;;;;38.97;4.82;;;18.70;83.20;;;;;;5113829;28;20023;-72
2022/10/21 07:23:38;;;;;;;21.85;3.42;;;18.60;83.20;;;;;;5080915;28;20044;-72
2022/10/21 07:26:07;;;;;;;23.88;4.30;;;18.70;83.40;;;;;;5092420;28;20052;-72
2022/10/21 07:28:32;;;;;;;24.70;4.57;;;18.60;83.20;;;;;;5075646;28;20505;-72
2022/10/21 07:30:58;;;;;;;25.50;4.15;;;18.60;83.20;;;;;;5092359;28;20024;-72
2022/10/21 07:33:24;;;;;;;21.50;4.57;;;18.60;83.20;;;;;;5092187;28;20032;-72
2022/10/21 07:35:50;;;;;;;28.33;4.20;;;18.60;83.30;;;;;;5093347;28;20017;-72
2022/10/21 07:38:15;;;;;;;21.10;4.55;;;18.60;83.10;;;;;;5092351;28;20047;-72
2022/10/21 07:40:41;;;;;;;27.08;5.50;;;18.60;83.20;;;;;;5108721;28;20031;-72
2022/10/21 07:43:07;;;;;;;28.13;4.72;;;18.60;83.20;;;;;;5113695;28;20379;-72
2022/10/21 07:45:33;;;;;;;23.85;4.13;;;18.60;83.10;;;;;;5095779;28;20034;-72
2022/10/21 07:47:59;;;;;;;22.13;3.65;;;18.60;83.20;;;;;;5095458;28;20482;-72
2022/10/21 07:50:25;;;;;;;25.42;4.43;;;18.60;83.10;;;;;;5112921;28;20027;-72
2022/10/21 07:52:50;;;;;;;23.35;4.03;;;18.60;83.10;;;;;;5112370;28;20038;-72
2022/10/21 07:55:16;;;;;;;22.85;4.07;;;18.60;83.10;;;;;;5113325;28;20050;-72
2022/10/21 07:57:42;;;;;;;30.08;4.40;;;18.60;83.00;;;;;;5113377;28;20028;-72
2022/10/21 08:00:08;;;;;;;29.15;5.28;;;18.60;83.00;;;;;;5095339;28;20024;-72
2022/10/21 08:02:35;;;;;;;31.17;4.40;;;18.60;83.00;;;;;;5095372;28;20398;-72
2022/10/21 08:05:01;;;;;;;24.58;4.60;;;18.60;82.90;;;;;;5113134;28;20028;-72
2022/10/21 08:07:26;;;;;;;28.00;5.38;;;18.50;82.90;;;;;;5096045;28;20039;-72
2022/10/21 08:09:52;;;;;;;25.77;4.55;;;18.60;82.90;;;;;;5091958;28;20028;-72
2022/10/21 08:12:17;;;;;;;18.63;4.13;;;18.60;82.90;;;;;;5092762;28;20115;-72
2022/10/21 08:14:43;;;;;;;27.15;4.70;;;18.60;83.00;;;;;;5107499;28;20020;-72
2022/10/21 08:17:09;;;;;;;30.17;5.18;;;18.60;82.90;;;;;;5111956;28;20023;-72
2022/10/21 08:19:34;;;;;;;28.13;4.72;;;18.50;82.80;;;;;;5112091;28;20393;-72
2022/10/21 08:22:00;;;;;;;23.63;5.13;;;18.60;83.00;;;;;;5113005;28;20102;-72
2022/10/21 08:24:26;;;;;;;22.00;4.43;;;18.60;82.90;;;;;;5111742;28;20024;-72
2022/10/21 08:26:52;;;;;;;21.85;3.95;;;18.60;82.90;;;;;;5111959;28;20020;-72
2022/10/21 08:29:18;;;;;;;23.33;4.65;;;18.60;82.90;;;;;;5111689;28;20359;-72
2022/10/21 08:31:43;;;;;;;21.42;4.00;;;18.50;82.80;;;;;;5111817;28;20419;-72
2022/10/21 08:34:09;;;;;;;21.45;4.05;;;18.50;82.70;;;;;;5111351;28;20024;-72
2022/10/21 08:36:35;;;;;;;19.10;4.05;;;18.50;82.80;;;;;;5111761;28;20028;-72
2022/10/21 08:39:01;;;;;;;27.15;5.47;;;18.50;82.80;;;;;;5094778;28;20043;-72
2022/10/21 08:41:29;;;;;;;24.08;4.13;;;18.50;82.80;;;;;;5112948;28;20051;-72
2022/10/21 08:44:18;;;;;;;21.67;4.20;;;18.50;82.80;;;;;;5112728;28;20027;-72
2022/10/21 08:46:48;;;;;;;25.38;4.47;;;18.50;82.70;;;;;;5101896;27;20100;-72
2022/10/21 08:49:25;;;;;;;21.00;3.97;;;18.50;82.80;;;;;;5111261;28;20016;-72
2022/10/21 08:51:58;;;;;;;22.05;5.03;;;18.50;82.70;;;;;;5095813;28;20024;-72
2022/10/21 08:54:30;;;;;;;23.02;4.65;;;18.50;82.70;;;;;;5095187;28;20044;-72
2022/10/21 08:56:59;;;;;;;25.80;4.90;;;18.50;82.60;;;;;;5095599;28;20482;-72
2022/10/21 08:59:25;;;;;;;19.77;4.03;;;18.50;82.60;;;;;;5095057;28;20023;-72
2022/10/21 09:02:26;;;;;;;18.73;3.92;;;18.50;82.80;;;;;;5111166;28;20049;-72
2022/10/21 09:05:05;;;;;;;22.60;4.15;;;18.50;82.60;;;;;;5073478;28;20394;-72
2022/10/21 09:07:40;;;;;;;23.33;4.10;;;18.50;82.60;;;;;;5097490;28;20027;-72
2022/10/21 09:10:34;;;;;;;26.20;4.30;;;18.50;82.60;;;;;;5096312;28;20020;-72
2022/10/21 09:13:11;;;;;;;16.58;4.03;;;18.50;82.70;;;;;;5080191;28;20081;-72
2022/10/21 09:15:54;;;;;;;24.90;4.13;;;18.50;82.70;;;;;;5061984;28;20195;-72
2022/10/21 09:18:56;;;;;;;19.15;4.20;;;18.50;82.70;;;;;;5062143;28;20032;-72
2022/10/21 09:21:29;;;;;;;19.33;3.72;;;18.50;82.70;;;;;;5093855;28;20036;-72
2022/10/21 09:24:01;;;;;;;16.63;3.40;;;18.50;82.70;;;;;;5060789;28;20034;-72
2022/10/21 09:26:43;;;;;;;18.33;3.63;;;18.50;82.60;;;;;;5076957;28;20038;-72
2022/10/21 09:29:19;;;;;;;27.07;4.17;;;18.50;82.60;;;;;;5060692;28;20554;-72
2022/10/21 09:31:45;;;;;;;19.70;3.60;;;18.50;82.70;;;;;;5060594;28;20270;-72
2022/10/21 09:34:34;;;;;;;27.55;4.38;;;18.50;82.60;;;;;;5076904;28;20150;-72
2022/10/21 09:37:01;;;;;;;19.48;4.25;;;18.40;82.50;;;;;;5076799;28;20130;-72
2022/10/21 09:39:35;;;;;;;18.95;3.22;;;18.50;82.70;;;;;;5060108;28;20047;-72
2022/10/21 09:42:00;;;;;;;24.70;5.32;;;18.50;82.50;;;;;;5060425;28;20031;-72
2022/10/21 09:44:26;;;;;;;27.58;4.65;;;18.50;82.60;;;;;;5076530;28;20430;-72
2022/10/21 09:46:52;;;;;;;22.58;4.10;;;18.50;82.60;;;;;;5076629;28;20508;-72
2022/10/21 09:49:38;;;;;;;19.20;4.70;;;18.40;82.50;;;;;;5082014;28;20042;-72
2022/10/21 09:52:04;;;;;;;18.77;3.90;;;18.50;82.50;;;;;;5114082;28;20041;-72
2022/10/21 09:54:36;;;;;;;23.67;4.57;;;18.50;82.50;;;;;;5097753;28;20174;-72
2022/10/21 09:57:17;;;;;;;22.20;4.97;;;18.40;82.50;;;;;;5098093;28;20012;-72
2022/10/21 09:59:54;;;;;;;24.97;4.23;;;18.40;82.30;;;;;;5098948;28;20019;-72
2022/10/21 10:02:31;;;;;;;22.25;4.32;;;18.40;82.50;;;;;;5098134;28;20024;-72
2022/10/21 10:04:57;;;;;;;21.08;4.15;;;18.40;82.50;;;;;;5098756;28;20019;-72
2022/10/21 10:07:27;;;;;;;17.45;4.40;;;18.40;82.30;;;;;;5097630;28;20055;-72
2022/10/21 10:09:53;;;;;;;25.65;4.50;;;18.40;82.40;;;;;;5094097;28;20020;-72
2022/10/21 10:12:23;;;;;;;22.15;4.00;;;18.40;82.20;;;;;;5077025;28;20031;-72
2022/10/21 10:14:49;;;;;;;24.13;4.18;;;18.40;82.30;;;;;;5108618;28;20047;-72
2022/10/21 10:17:30;;;;;;;18.20;3.85;;;18.40;82.20;;;;;;5097313;28;20551;-72
2022/10/21 10:20:18;;;;;;;18.27;3.72;;;18.40;82.20;;;;;;5114264;28;20016;-72
2022/10/21 10:22:57;;;;;;;21.25;3.35;;;18.40;82.00;;;;;;5114244;28;20028;-72
2022/10/21 10:25:24;;;;;;;19.05;3.70;;;18.40;81.90;;;;;;5114106;28;20035;-72
2022/10/21 10:27:54;;;;;;;21.92;4.03;;;18.40;82.20;;;;;;5097391;28;20394;-72
2022/10/21 10:30:20;;;;;;;24.83;4.05;;;18.40;82.20;;;;;;5113909;28;20482;-72
2022/10/21 10:32:46;;;;;;;22.15;4.47;;;18.40;82.20;;;;;;5097220;28;20023;-72
2022/10/21 10:35:23;;;;;;;19.98;3.65;;;18.40;82.00;;;;;;5113778;28;20020;-72
2022/10/21 10:37:49;;;;;;;19.80;3.22;;;18.40;82.10;;;;;;5114088;28;20050;-72
2022/10/21 10:40:38;;;;;;;16.05;3.50;;;18.40;82.10;;;;;;5113916;28;20026;-72
2022/10/21 10:43:16;;;;;;;20.30;4.38;;;18.40;82.10;;;;;;5097238;28;20062;-72
2022/10/21 10:45:57;;;;;;;17.90;3.85;;;18.40;82.10;;;;;;5114013;28;20015;-72
2022/10/21 10:48:37;;;;;;;18.00;2.95;;;18.40;82.10;;;;;;5113885;28;20024;-72
2022/10/21 10:51:26;;;;;;;20.75;4.05;;;18.40;82.20;;;;;;5098186;28;20027;-72
2022/10/21 10:54:01;;;;;;;17.70;3.88;;;18.40;82.20;;;;;;5113417;28;20119;-72
2022/10/21 10:56:41;;;;;;;23.98;4.40;;;18.40;82.10;;;;;;5114657;28;20020;-72
2022/10/21 10:59:30;;;;;;;19.33;4.13;;;18.40;82.00;;;;;;5113319;28;20050;-72
2022/10/21 11:02:13;;;;;;;17.25;3.78;;;18.40;82.00;;;;;;5106303;28;20089;-72
2022/10/21 11:04:58;;;;;;;19.00;4.13;;;18.40;82.10;;;;;;5114537;28;20035;-73
2022/10/21 11:07:47;;;;;;;19.45;3.83;;;18.40;82.10;;;;;;5096357;28;20502;-72
2022/10/21 11:10:32;;;;;;;25.17;4.35;;;18.40;82.00;;;;;;5077636;28;20475;-72
2022/10/21 11:13:08;;;;;;;27.48;3.63;;;18.30;82.00;;;;;;5092684;28;20394;-72
2022/10/21 11:15:37;;;;;;;20.90;3.58;;;18.40;82.10;;;;;;5073439;28;20017;-72
2022/10/21 11:18:18;;;;;;;16.98;3.63;;;18.30;82.00;;;;;;5072626;28;20021;-72
2022/10/21 11:21:15;;;;;;;22.45;4.20;;;18.30;82.00;;;;;;5073569;28;20648;-72
2022/10/21 11:23:46;;;;;;;17.23;4.10;;;18.40;82.00;;;;;;5073507;28;20021;-72
2022/10/21 11:26:35;;;;;;;17.73;3.67;;;18.30;82.00;;;;;;5071643;28;20024;-72
2022/10/21 11:29:22;;;;;;;17.20;3.10;;;18.40;82.00;;;;;;5073453;28;20051;-72
2022/10/21 11:32:00;;;;;;;18.55;3.65;;;18.30;82.00;;;;;;5073267;28;20029;-72
2022/10/21 11:34:46;;;;;;;17.63;3.00;;;18.40;82.00;;;;;;5072194;28;20060;-72
2022/10/21 11:37:15;;;;;;;19.52;3.70;;;18.30;82.00;;;;;;5072161;28;20024;-72
2022/10/21 11:40:23;;;;;;;20.65;3.25;;;18.40;82.00;;;;;;5073209;28;20021;-72
2022/10/21 11:42:49;;;;;;;20.65;3.55;;;18.30;82.00;;;;;;5030986;28;20110;-72
2022/10/21 11:45:36;;;;;;;17.25;3.47;;;18.40;82.00;;;;;;5014379;28;20034;-72
2022/10/21 11:48:29;;;;;;;15.43;3.03;;;18.40;82.00;;;;;;5031147;28;20037;-72
2022/10/21 11:51:13;;;;;;;;;;;18.40;82.00;;;;;;5031575;28;20124;-72
2022/10/21 11:53:51;;;;;;;20.20;3.65;;;18.40;82.00;;;;;;5030804;28;20322;-72
2022/10/21 11:56:29;;;;;;;14.50;3.42;;;18.30;82.00;;;;;;5030916;28;20609;-72
2022/10/21 11:59:12;;;;;;;18.80;3.10;;;18.30;82.00;;;;;;5031032;28;20034;-72
2022/10/21 12:01:41;;;;;;;18.08;3.08;;;18.30;82.00;;;;;;5030997;28;20053;-72
2022/10/21 12:04:20;;;;;;;15.63;3.33;;;18.30;82.10;;;;;;5030743;28;20045;-72
2022/10/21 12:07:10;;;;;;;16.95;3.15;;;18.30;82.10;;;;;;5041724;28;20044;-72
2022/10/21 12:09:50;;;;;;;17.80;3.97;;;18.30;82.10;;;;;;5036513;28;20063;-72
2022/10/21 12:12:22;;;;;;;13.68;2.92;;;18.30;82.00;;;;;;5033662;28;20025;-72
2022/10/21 12:15:01;;;;;;;18.20;3.95;;;18.40;82.00;;;;;;5048828;28;20024;-72
2022/10/21 12:17:27;;;;;;;17.92;3.17;;;18.30;82.00;;;;;;5037272;28;20032;-72
2022/10/21 12:19:56;;;;;;;18.17;2.92;;;18.30;82.00;;;;;;5049091;28;20028;-72
2022/10/21 12:22:22;;;;;;;18.88;3.90;;;18.30;82.00;;;;;;5095293;28;20019;-72
2022/10/21 12:24:57;;;;;;;16.48;2.85;;;18.30;82.00;;;;;;5094858;28;20028;-72
2022/10/21 12:27:34;;;;;;;20.40;3.60;;;18.30;82.00;;;;;;5112985;28;20092;-72
2022/10/21 12:30:20;;;;;;;15.45;3.00;;;18.40;82.00;;;;;;5095450;28;20031;-72
2022/10/21 12:33:05;;;;;;;13.93;2.85;;;18.30;82.00;;;;;;5095726;28;20028;-72
2022/10/21 12:35:52;;;;;;;19.70;3.40;;;18.30;82.00;;;;;;5112914;28;20077;-72
2022/10/21 12:38:52;;;;;;;16.25;3.38;;;18.30;82.00;;;;;;5111537;28;20034;-72
2022/10/21 12:41:23;;;;;;;17.52;2.78;;;18.30;82.00;;;;;;5112775;28;20034;-72
2022/10/21 12:44:04;;;;;;;16.17;2.85;;;18.30;82.10;;;;;;5112907;28;20028;-72
2022/10/21 12:46:53;;;;;;;15.85;2.90;;;18.30;82.10;;;;;;5112831;28;20057;-72
2022/10/21 12:49:22;;;;;;;14.68;2.97;;;18.40;82.10;;;;;;5111434;28;20026;-72
2022/10/21 12:51:51;;;;;;;16.10;3.85;;;18.30;82.10;;;;;;5111607;28;20402;-72
2022/10/21 12:54:20;;;;;;;14.63;3.65;;;18.30;82.10;;;;;;5112424;28;20126;-72
2022/10/21 12:56:51;;;;;;;15.90;3.88;;;18.40;82.20;;;;;;5094709;28;20016;-72
2022/10/21 12:59:28;;;;;;;17.27;3.20;;;18.30;82.20;;;;;;5111600;28;20019;-72
2022/10/21 13:02:08;;;;;;;19.30;3.20;;;18.30;82.20;;;;;;5112692;28;20094;-72